Time;durP1;ratioP1;P1;durP2;ratioP2;P2;SDS_P1;SDS_P2;PMS_P1;PMS_P2;Temp;Humidity;BMP_temperature;BMP_pressure;BME280_temperature;BME280_humidity;BME280_pressure;Samples;Min_cycle;Max_cycle;Signal;HPM_P1;HPM_P2
2022/09/09 00:00:30;;;;;;;4.70;2.35;;;;;;;8.77;75.23;102183.09;10570521;28;20040;-71
2022/09/09 00:05:40;;;;;;;7.65;2.47;;;;;;;8.75;75.21;102177.03;10569854;28;20047;-71
2022/09/09 00:10:42;;;;;;;4.05;2.15;;;;;;;8.71;74.73;102175.81;10569276;28;20405;-71
2022/09/09 00:16:00;;;;;;;6.97;2.22;;;;;;;8.74;74.83;102180.81;10568158;28;20036;-72
2022/09/09 00:21:17;;;;;;;5.18;2.35;;;;;;;8.84;75.53;102180.25;10568513;28;20044;-72
2022/09/09 00:26:48;;;;;;;7.55;2.67;;;;;;;8.82;75.23;102189.75;10569374;28;20391;-71
2022/09/09 00:31:54;;;;;;;7.60;2.50;;;;;;;8.84;75.99;102196.69;10567385;28;20040;-71
2022/09/09 00:37:01;;;;;;;5.05;2.40;;;;;;;8.81;76.71;102196.31;10567803;28;20052;-71
2022/09/09 00:42:14;;;;;;;3.65;2.40;;;;;;;8.80;76.59;102194.63;10548575;28;20498;-71
2022/09/09 00:47:38;;;;;;;5.93;2.67;;;;;;;8.77;77.14;102195.94;10554278;28;20194;-71
2022/09/09 00:52:46;;;;;;;7.97;2.70;;;;;;;8.76;77.01;102206.06;10567331;28;20090;-71
2022/09/09 00:57:53;;;;;;;4.40;2.35;;;;;;;8.76;76.78;102199.75;10569252;28;20039;-72
2022/09/09 01:03:39;;;;;;;4.75;2.13;;;;;;;8.72;76.96;102201.28;10566648;28;20543;-71
2022/09/09 01:09:08;;;;;;;6.53;2.63;;;;;;;8.76;77.52;102200.59;10551634;28;20059;-72
2022/09/09 01:14:20;;;;;;;5.95;2.55;;;;;;;8.77;77.49;102188.56;10543016;28;20048;-71
2022/09/09 01:19:46;;;;;;;4.38;2.33;;;;;;;8.77;77.99;102190.47;10552116;28;20520;-72
2022/09/09 01:25:15;;;;;;;5.20;2.17;;;;;;;8.82;77.71;102189.75;10551665;28;20040;-71
2022/09/09 01:31:06;;;;;;;4.70;2.75;;;;;;;8.75;77.77;102193.44;10553455;28;20047;-71
2022/09/09 01:36:30;;;;;;;6.32;2.80;;;;;;;8.69;78.00;102194.38;10551490;28;20055;-72
2022/09/09 01:41:36;;;;;;;6.35;2.80;;;;;;;8.61;79.29;102199.31;10550340;28;20055;-71
2022/09/09 01:46:44;;;;;;;3.58;2.38;;;;;;;8.55;78.86;102192.03;10571285;28;20055;-71
2022/09/09 01:51:57;;;;;;;5.72;2.97;;;;;;;8.47;79.32;102193.16;10573210;28;20036;-71
2022/09/09 01:57:39;;;;;;;5.55;2.72;;;;;;;8.52;79.31;102192.50;10591893;28;20449;-72
2022/09/09 02:03:02;;;;;;;6.35;2.60;;;;;;;8.52;79.42;102195.22;10557043;28;20067;-71
2022/09/09 02:08:33;;;;;;;7.97;2.50;;;;;;;8.55;78.44;102195.59;10557404;28;20032;-71
2022/09/09 02:13:45;;;;;;;4.27;2.40;;;;;;;8.59;79.13;102193.25;10555531;28;20058;-71
2022/09/09 02:19:21;;;;;;;9.70;2.90;;;;;;;8.62;78.60;102193.59;10574146;28;20040;-72
2022/09/09 02:24:37;;;;;;;4.20;2.28;;;;;;;8.61;78.51;102196.56;10558069;28;20047;-72
2022/09/09 02:29:56;;;;;;;6.53;2.20;;;;;;;8.62;79.38;102190.03;10531390;28;20040;-71
2022/09/09 02:35:20;;;;;;;5.25;2.33;;;;;;;8.63;78.93;102178.84;10544058;28;20070;-71
2022/09/09 02:40:22;;;;;;;4.63;2.25;;;;;;;8.64;78.81;102186.00;10532067;28;20466;-71
2022/09/09 02:45:39;;;;;;;6.35;2.30;;;;;;;8.67;79.04;102188.25;10571443;28;20047;-71
2022/09/09 02:50:55;;;;;;;4.32;2.20;;;;;;;8.72;78.94;102182.97;10545102;28;20151;-71
2022/09/09 02:56:04;;;;;;;2.85;1.70;;;;;;;8.72;78.15;102188.44;10549136;28;20071;-71
2022/09/09 03:01:09;;;;;;;2.72;1.48;;;;;;;8.72;78.02;102177.50;10555444;28;20036;-71
2022/09/09 03:06:12;;;;;;;3.08;1.67;;;;;;;8.72;78.34;102179.38;10573245;28;20040;-71
2022/09/09 03:11:16;;;;;;;6.05;1.42;;;;;;;8.71;77.62;102177.72;10570495;28;20047;-72
2022/09/09 03:16:19;;;;;;;2.75;1.15;;;;;;;8.77;77.52;102183.09;10553874;28;20054;-72
2022/09/09 03:21:25;;;;;;;2.25;1.10;;;;;;;8.79;76.75;102176.56;10538094;28;20043;-71
2022/09/09 03:26:27;;;;;;;1.83;1.00;;;;;;;8.82;77.04;102181.56;10571562;28;20044;-71
2022/09/09 03:31:30;;;;;;;1.23;1.05;;;;;;;8.88;75.65;102181.47;10569605;28;20052;-71
2022/09/09 03:36:33;;;;;;;2.30;1.20;;;;;;;8.87;75.60;102193.50;10570878;28;20052;-71
2022/09/09 03:41:36;;;;;;;1.98;1.10;;;;;;;8.82;76.61;102176.91;10569557;28;20040;-71
2022/09/09 03:46:40;;;;;;;2.20;1.13;;;;;;;8.80;76.63;102189.16;10570720;28;20046;-71
2022/09/09 03:51:42;;;;;;;3.60;1.20;;;;;;;8.79;76.46;102192.97;10570193;28;20052;-71
2022/09/09 03:56:46;;;;;;;2.97;1.10;;;;;;;8.77;77.07;102193.22;10569218;28;20047;-71
2022/09/09 04:01:49;;;;;;;1.92;1.30;;;;;;;8.75;76.99;102187.97;10553361;28;20063;-71
2022/09/09 04:06:52;;;;;;;2.60;1.10;;;;;;;8.79;77.09;102198.44;10568361;28;20040;-71
2022/09/09 04:11:56;;;;;;;4.18;1.30;;;;;;;8.80;76.62;102195.47;10545138;28;20044;-71
2022/09/09 04:16:59;;;;;;;1.77;1.33;;;;;;;8.80;77.25;102195.47;10563581;28;20058;-72
2022/09/09 04:22:02;;;;;;;2.20;0.95;;;;;;;8.81;77.30;102201.78;10565581;28;20031;-72
2022/09/09 04:27:04;;;;;;;1.38;0.77;;;;;;;8.86;77.87;102196.47;10562195;28;20453;-71
2022/09/09 04:32:11;;;;;;;1.13;0.90;;;;;;;8.99;77.82;102197.09;10567281;28;20040;-71
2022/09/09 04:37:15;;;;;;;3.15;1.10;;;;;;;9.53;77.71;102186.16;10567784;28;20040;-72
2022/09/09 04:42:19;;;;;;;3.08;1.30;;;;;;;10.51;75.36;102180.75;10549879;28;20039;-71
2022/09/09 04:47:22;;;;;;;3.78;1.55;;;;;;;11.27;72.42;102186.03;10565984;28;20051;-71
2022/09/09 04:52:25;;;;;;;2.60;1.30;;;;;;;11.71;69.75;102178.81;10566031;28;20086;-71
2022/09/09 04:57:28;;;;;;;3.75;1.35;;;;;;;12.21;67.90;102180.66;10567456;28;20047;-71
2022/09/09 05:02:31;;;;;;;4.70;1.60;;;;;;;12.02;66.95;102188.38;10550043;28;20048;-72
2022/09/09 05:07:34;;;;;;;2.13;1.25;;;;;;;11.80;67.68;102195.72;10566034;28;20044;-72
2022/09/09 05:12:36;;;;;;;3.50;1.40;;;;;;;11.92;67.44;102190.97;10559697;28;20044;-72
2022/09/09 05:17:39;;;;;;;3.30;1.60;;;;;;;12.11;67.11;102197.84;10573014;28;20036;-72
2022/09/09 05:22:42;;;;;;;2.83;1.38;;;;;;;12.72;65.02;102198.66;10592175;28;20036;-72
2022/09/09 05:27:44;;;;;;;5.40;1.90;;;;;;;13.43;62.72;102193.09;10575538;28;20052;-72
2022/09/09 05:32:48;;;;;;;4.72;2.00;;;;;;;14.06;60.98;102205.16;10577591;28;20044;-72
2022/09/09 05:37:53;;;;;;;6.45;2.22;;;;;;;14.65;58.94;102197.47;10575670;28;20059;-72
2022/09/09 05:42:59;;;;;;;5.72;1.80;;;;;;;14.94;57.22;102200.63;10574727;28;20043;-72
2022/09/09 05:48:01;;;;;;;6.65;1.83;;;;;;;15.32;56.02;102199.31;10574029;28;20383;-72
2022/09/09 05:53:05;;;;;;;4.68;1.60;;;;;;;15.56;54.91;102199.59;10582798;28;20055;-71
2022/09/09 05:58:09;;;;;;;6.22;1.95;;;;;;;15.81;53.96;102201.56;10556892;28;20513;-72
2022/09/09 06:03:11;;;;;;;4.15;1.75;;;;;;;16.24;52.96;102202.03;10549271;28;20044;-72
2022/09/09 06:08:14;;;;;;;8.48;1.52;;;;;;;16.12;52.74;102201.50;10549869;28;20048;-72
2022/09/09 06:13:47;;;;;;;6.00;1.70;;;;;;;15.52;53.93;102200.44;10563137;28;20056;-72
2022/09/09 06:18:51;;;;;;;5.68;1.48;;;;;;;15.49;53.96;102206.53;10573948;28;20040;-72
2022/09/09 06:23:54;;;;;;;3.47;1.27;;;;;;;16.16;52.90;102200.69;10557467;28;20036;-71
2022/09/09 06:28:58;;;;;;;3.08;1.13;;;;;;;16.55;51.78;102198.03;10574655;28;20036;-71
2022/09/09 06:34:01;;;;;;;2.72;1.65;;;;;;;17.02;49.59;102191.19;10572819;28;20046;-72
2022/09/09 06:39:06;;;;;;;3.38;1.35;;;;;;;17.37;48.17;102201.22;10573459;28;20047;-72
2022/09/09 06:44:11;;;;;;;2.17;1.05;;;;;;;16.89;48.55;102208.47;10557003;28;20541;-72
2022/09/09 06:49:17;;;;;;;3.25;1.20;;;;;;;16.46;49.85;102205.28;10572774;28;20040;-71
2022/09/09 06:54:45;;;;;;;2.63;1.35;;;;;;;16.06;50.07;102209.00;10573536;28;20036;-71
2022/09/09 06:59:50;;;;;;;1.40;0.80;;;;;;;16.05;50.41;102200.97;10571935;28;20048;-72
2022/09/09 07:04:52;;;;;;;3.72;1.20;;;;;;;16.69;50.00;102205.78;10570420;28;20043;-71
2022/09/09 07:09:55;;;;;;;1.75;0.95;;;;;;;17.44;48.72;102211.97;10571060;28;20032;-72
2022/09/09 07:15:26;;;;;;;3.35;1.10;;;;;;;17.37;48.49;102208.72;10571802;28;20050;-72
2022/09/09 07:20:30;;;;;;;3.08;1.38;;;;;;;17.67;47.91;102213.16;10571684;28;20039;-72
2022/09/09 07:25:36;;;;;;;2.78;1.40;;;;;;;17.73;47.29;102210.13;10573090;28;20048;-74
2022/09/09 07:30:39;;;;;;;2.70;0.95;;;;;;;17.93;47.25;102214.66;10570815;28;20047;-75
2022/09/09 07:35:42;;;;;;;3.17;1.00;;;;;;;17.48;47.50;102226.94;10554088;28;20054;-74
2022/09/09 07:40:45;;;;;;;1.88;1.00;;;;;;;17.14;47.75;102215.78;10570360;28;20039;-75
2022/09/09 07:45:57;;;;;;;2.78;1.20;;;;;;;16.85;48.90;102230.38;10569627;28;20544;-75
2022/09/09 07:51:22;;;;;;;2.05;1.08;;;;;;;16.77;49.27;102227.34;10570418;28;20548;-75
2022/09/09 07:56:27;;;;;;;1.77;0.87;;;;;;;17.58;47.12;102231.59;10541972;28;20043;-75
2022/09/09 08:01:33;;;;;;;1.98;0.82;;;;;;;18.22;46.41;102220.19;10527901;28;20056;-75
2022/09/09 08:06:39;;;;;;;1.27;0.75;;;;;;;18.91;44.46;102226.31;10531385;28;20055;-74
2022/09/09 08:11:43;;;;;;;1.88;1.02;;;;;;;19.06;43.92;102220.53;10541220;28;20409;-75
2022/09/09 08:16:49;;;;;;;2.90;1.52;;;;;;;18.24;45.17;102219.91;10569493;28;20044;-74
2022/09/09 08:21:55;;;;;;;1.10;1.00;;;;;;;18.79;45.01;102231.50;10552673;28;20032;-75
2022/09/09 08:26:57;;;;;;;2.58;1.10;;;;;;;18.37;45.36;102224.72;10552820;28;20052;-74
2022/09/09 08:32:01;;;;;;;3.15;1.25;;;;;;;17.45;46.42;102233.88;10551884;28;20040;-75
2022/09/09 08:37:04;;;;;;;2.53;1.50;;;;;;;16.79;48.07;102236.22;10568367;28;20035;-75
2022/09/09 08:42:24;;;;;;;3.75;1.48;;;;;;;16.00;49.65;102231.44;10569127;28;20058;-75
2022/09/09 08:47:46;;;;;;;6.22;2.00;;;;;;;15.62;51.34;102237.28;10551726;28;20518;-75
2022/09/09 08:53:00;;;;;;;1.50;1.40;;;;;;;15.22;52.04;102232.47;10550999;28;20395;-74
2022/09/09 08:58:21;;;;;;;1.88;1.20;;;;;;;14.92;52.18;102232.38;10564140;28;20044;-74
2022/09/09 09:03:35;;;;;;;2.80;1.20;;;;;;;14.68;53.47;102227.34;10550522;28;20048;-74
2022/09/09 09:08:52;;;;;;;2.33;1.75;;;;;;;14.40;53.57;102234.06;10545320;28;20047;-74
2022/09/09 09:13:57;;;;;;;;;;;;;;;14.32;54.38;102231.81;10526719;28;20040;-74
2022/09/09 09:19:00;;;;;;;1.83;1.48;;;;;;;14.19;54.84;102241.41;10597872;28;19919;-75
2022/09/09 09:24:11;;;;;;;2.58;1.40;;;;;;;14.28;55.71;102240.91;10635434;28;20039;-76
2022/09/09 09:29:19;;;;;;;2.70;1.40;;;;;;;14.27;55.14;102233.72;10618678;28;20051;-74
2022/09/09 09:34:24;;;;;;;4.22;1.27;;;;;;;14.22;55.60;102231.75;10617904;28;20043;-75
2022/09/09 09:39:36;;;;;;;3.33;1.50;;;;;;;14.35;55.06;102227.69;10629395;28;20409;-77
2022/09/09 09:44:39;;;;;;;4.05;1.10;;;;;;;14.45;54.50;102230.56;10618752;28;20031;-74
2022/09/09 09:49:55;;;;;;;1.85;1.20;;;;;;;14.37;54.30;102219.97;10634849;28;20047;-74
2022/09/09 09:55:02;;;;;;;3.30;1.15;;;;;;;14.41;53.79;102221.13;10606125;28;20457;-74
2022/09/09 10:00:13;;;;;;;2.58;1.17;;;;;;;14.54;53.36;102217.88;10585035;28;20034;-74
2022/09/09 10:05:25;;;;;;;3.00;1.13;;;;;;;14.70;52.41;102216.84;10635495;27;20420;-74
2022/09/09 10:10:57;;;;;;;2.58;1.08;;;;;;;14.64;52.23;102219.88;10642933;27;20035;-74
2022/09/09 10:16:06;;;;;;;1.00;0.80;;;;;;;14.62;51.83;102208.25;10633095;27;20054;-74
2022/09/09 10:21:37;;;;;;;1.10;0.95;;;;;;;14.53;52.20;102204.34;10659858;27;20425;-74
2022/09/09 10:26:53;;;;;;;2.60;1.30;;;;;;;14.45;51.41;102205.69;10644676;27;20050;-74
2022/09/09 10:32:24;;;;;;;2.03;0.90;;;;;;;14.33;51.55;102205.03;10636229;27;20038;-74
2022/09/09 10:37:47;;;;;;;1.65;0.70;;;;;;;14.26;51.83;102202.53;10655285;27;20065;-73
2022/09/09 10:42:49;;;;;;;1.95;1.00;;;;;;;14.13;52.25;102212.09;10650042;27;20031;-73
2022/09/09 10:48:17;;;;;;;2.20;0.82;;;;;;;14.04;52.19;102199.88;10658259;27;20047;-74
2022/09/09 10:53:44;;;;;;;2.50;1.48;;;;;;;13.91;52.37;102200.38;10641360;27;20148;-73
2022/09/09 10:59:15;;;;;;;1.50;0.90;;;;;;;13.84;52.72;102202.50;10639871;27;20535;-73
2022/09/09 11:04:22;;;;;;;1.95;0.80;;;;;;;13.84;52.36;102205.28;10647069;27;20512;-74
2022/09/09 11:09:26;;;;;;;;;;;;;;;13.85;52.41;102193.13;10639697;27;20055;-74
2022/09/09 11:14:37;;;;;;;1.20;0.80;;;;;;;14.01;52.03;102203.19;10639503;27;19919;-74
2022/09/09 11:19:41;;;;;;;2.30;0.80;;;;;;;14.11;52.35;102205.19;10638604;27;20397;-74
2022/09/09 11:24:54;;;;;;;2.15;0.90;;;;;;;14.15;52.42;102196.09;10646228;27;20070;-74
2022/09/09 11:30:15;;;;;;;4.47;1.10;;;;;;;14.31;52.17;102187.91;10637854;27;20046;-74
2022/09/09 11:35:23;;;;;;;2.17;0.90;;;;;;;14.39;51.66;102188.22;10656524;27;20512;-74
2022/09/09 11:40:27;;;;;;;1.70;0.60;;;;;;;14.37;50.44;102181.31;10638313;27;20042;-74
2022/09/09 11:45:29;;;;;;;1.80;0.68;;;;;;;14.34;50.48;102190.13;10638417;27;20043;-74
2022/09/09 11:50:34;;;;;;;0.75;0.70;;;;;;;14.26;50.94;102187.88;10638172;27;20516;-74
2022/09/09 11:55:36;;;;;;;1.50;1.20;;;;;;;14.22;51.45;102187.56;10620382;27;20043;-74
2022/09/09 12:00:44;;;;;;;1.45;0.80;;;;;;;14.18;50.69;102187.28;10604604;27;20023;-74
2022/09/09 12:05:46;;;;;;;1.15;0.70;;;;;;;14.03;51.07;102178.91;10624275;27;20047;-74
2022/09/09 12:10:57;;;;;;;1.45;0.90;;;;;;;13.98;51.02;102178.88;10595032;28;20046;-74
2022/09/09 12:16:02;;;;;;;1.52;0.70;;;;;;;13.91;50.66;102167.25;10611619;28;20040;-76
2022/09/09 12:21:08;;;;;;;0.98;0.82;;;;;;;13.93;50.81;102165.06;10635196;27;20051;-76
2022/09/09 12:26:31;;;;;;;0.93;0.80;;;;;;;14.00;50.37;102162.06;10655332;27;20035;-76
2022/09/09 12:32:01;;;;;;;2.60;0.77;;;;;;;13.98;50.69;102159.56;10635915;27;20047;-76
2022/09/09 12:37:12;;;;;;;2.45;0.93;;;;;;;13.88;51.21;102168.63;10654877;27;20062;-76
2022/09/09 12:42:19;;;;;;;2.58;0.80;;;;;;;13.83;51.53;102156.69;10636165;27;20035;-76
2022/09/09 12:47:26;;;;;;;1.50;0.90;;;;;;;13.73;51.62;102163.00;10636012;27;20039;-76
2022/09/09 12:52:37;;;;;;;1.27;0.85;;;;;;;13.57;52.20;102164.81;10654029;27;20050;-76
2022/09/09 12:57:40;;;;;;;1.27;0.98;;;;;;;13.61;52.43;102159.59;10651238;27;20054;-74
2022/09/09 13:02:56;;;;;;;1.05;0.80;;;;;;;13.50;52.21;102152.31;10649022;27;20047;-74
2022/09/09 13:08:06;;;;;;;1.95;1.13;;;;;;;13.42;52.51;102147.31;10654083;28;20378;-74
2022/09/09 13:13:15;;;;;;;2.55;1.10;;;;;;;13.34;53.05;102154.13;10636121;28;20046;-75
2022/09/09 13:18:25;;;;;;;3.83;1.02;;;;;;;13.24;52.96;102145.78;10618915;28;20078;-75
2022/09/09 13:23:32;;;;;;;3.40;1.00;;;;;;;13.20;53.15;102147.41;10632828;28;20047;-75
2022/09/09 13:28:34;;;;;;;0.82;0.80;;;;;;;13.14;53.23;102142.88;10635516;28;20039;-74
2022/09/09 13:33:37;;;;;;;1.38;1.00;;;;;;;13.15;53.52;102139.03;10619625;27;20502;-75
2022/09/09 13:38:51;;;;;;;1.73;0.93;;;;;;;13.12;54.08;102137.66;10652568;27;20035;-75
2022/09/09 13:43:55;;;;;;;1.83;0.93;;;;;;;13.11;54.26;102127.72;10661574;27;20420;-74
2022/09/09 13:49:18;;;;;;;2.20;0.90;;;;;;;13.10;53.81;102123.28;10655813;27;20051;-75
2022/09/09 13:54:21;;;;;;;2.15;1.40;;;;;;;13.06;54.12;102122.16;10642764;27;20043;-74
2022/09/09 13:59:24;;;;;;;2.25;1.17;;;;;;;13.04;53.77;102120.78;10642024;27;20417;-75
2022/09/09 14:04:26;;;;;;;3.05;1.30;;;;;;;12.95;54.42;102123.16;10642794;27;20496;-74
2022/09/09 14:09:31;;;;;;;2.40;1.17;;;;;;;12.99;54.73;102118.78;10653437;27;20076;-75
2022/09/09 14:14:38;;;;;;;2.92;1.80;;;;;;;13.05;54.73;102112.25;10644468;27;20055;-75
2022/09/09 14:19:40;;;;;;;1.97;1.40;;;;;;;13.00;54.60;102106.66;10663953;27;20061;-74
2022/09/09 14:24:48;;;;;;;3.00;1.30;;;;;;;12.90;55.28;102110.16;10639511;27;20035;-75
2022/09/09 14:29:52;;;;;;;2.40;1.30;;;;;;;12.90;54.80;102103.81;10613655;27;20133;-74
2022/09/09 14:34:54;;;;;;;1.60;1.40;;;;;;;12.80;55.50;102103.72;10657785;27;20039;-74
2022/09/09 14:39:57;;;;;;;4.25;1.83;;;;;;;12.69;55.17;102111.06;10656726;27;20050;-75
2022/09/09 14:44:59;;;;;;;2.85;1.80;;;;;;;12.65;55.93;102094.19;10652321;27;20043;-76
2022/09/09 14:50:03;;;;;;;3.10;1.63;;;;;;;12.61;56.19;102106.81;10650301;27;20043;-75
2022/09/09 14:55:11;;;;;;;4.18;2.35;;;;;;;12.55;56.23;102104.28;10622513;27;20167;-76
2022/09/09 15:00:13;;;;;;;4.25;2.20;;;;;;;12.49;55.96;102103.38;10669396;27;20057;-76
2022/09/09 15:05:19;;;;;;;5.53;1.42;;;;;;;12.46;56.32;102094.81;10655587;27;20055;-75
2022/09/09 15:10:21;;;;;;;3.97;1.73;;;;;;;12.44;56.59;102088.72;10619771;27;20067;-75
2022/09/09 15:15:31;;;;;;;5.80;2.55;;;;;;;12.38;56.28;102091.44;10646410;27;20062;-75
2022/09/09 15:20:33;;;;;;;4.13;2.08;;;;;;;12.30;56.65;102100.13;10635970;27;20042;-75
2022/09/09 15:25:35;;;;;;;4.00;1.90;;;;;;;12.23;57.00;102096.75;10627115;27;20035;-76
2022/09/09 15:30:37;;;;;;;3.88;1.70;;;;;;;12.21;57.55;102090.69;10635172;27;20058;-76
2022/09/09 15:35:40;;;;;;;1.40;1.10;;;;;;;12.16;58.08;102082.38;10618947;27;20081;-75
2022/09/09 15:40:43;;;;;;;1.85;1.48;;;;;;;12.08;57.71;102086.38;10653033;27;20047;-75
2022/09/09 15:45:54;;;;;;;5.15;1.60;;;;;;;12.07;58.11;102078.41;10654018;27;20046;-75
2022/09/09 15:51:03;;;;;;;;;;;;;;;11.99;57.57;102082.44;10619324;27;20072;-75
2022/09/09 15:56:08;;;;;;;3.42;1.45;;;;;;;11.93;58.38;102088.09;10636954;27;19919;-74
2022/09/09 16:01:12;;;;;;;4.40;1.58;;;;;;;11.85;59.35;102083.88;10631185;27;20031;-75
2022/09/09 16:06:15;;;;;;;3.10;1.50;;;;;;;11.81;59.61;102084.66;10657005;27;20043;-79
2022/09/09 16:11:23;;;;;;;3.88;1.80;;;;;;;11.70;59.94;102078.97;10623051;27;20035;-75
2022/09/09 16:16:26;;;;;;;;;;;;;;;11.62;60.60;102082.13;10652619;27;20520;-75
2022/09/09 16:21:34;;;;;;;6.88;2.00;;;;;;;11.58;61.07;102081.00;10633265;27;19930;-75
2022/09/09 16:26:39;;;;;;;3.78;2.00;;;;;;;11.47;60.45;102080.03;10652713;27;20578;-75
2022/09/09 16:31:41;;;;;;;3.42;1.63;;;;;;;11.40;60.69;102078.53;10623101;27;20027;-74
2022/09/09 16:36:44;;;;;;;2.03;1.20;;;;;;;11.33;60.96;102083.38;10628549;27;20061;-74
2022/09/09 16:41:47;;;;;;;2.03;1.52;;;;;;;11.27;61.70;102073.34;10650745;27;20413;-73
2022/09/09 16:46:51;;;;;;;3.65;2.35;;;;;;;11.18;61.28;102076.53;10606465;27;20050;-73
2022/09/09 16:51:56;;;;;;;4.45;2.10;;;;;;;11.15;62.11;102079.78;10650304;27;20043;-73
2022/09/09 16:56:59;;;;;;;2.92;1.95;;;;;;;11.17;61.52;102069.38;10649784;27;20420;-74
2022/09/09 17:02:03;;;;;;;2.95;2.10;;;;;;;11.17;62.43;102074.88;10632505;27;20039;-73
2022/09/09 17:07:06;;;;;;;3.83;2.05;;;;;;;11.14;62.96;102083.63;10657953;27;20047;-73
2022/09/09 17:12:08;;;;;;;2.40;1.67;;;;;;;11.10;63.12;102071.44;10634118;27;20047;-73
2022/09/09 17:17:11;;;;;;;2.85;1.80;;;;;;;11.10;63.08;102074.19;10638402;27;20099;-73
2022/09/09 17:22:13;;;;;;;5.43;2.10;;;;;;;11.09;62.99;102083.53;10655365;27;21016;-73
2022/09/09 17:27:15;;;;;;;6.97;2.40;;;;;;;11.03;62.89;102073.53;10619828;27;20051;-73
2022/09/09 17:32:18;;;;;;;5.25;2.20;;;;;;;11.05;63.25;102079.63;10601297;28;20061;-73
2022/09/09 17:37:20;;;;;;;4.32;1.85;;;;;;;11.00;63.66;102074.03;10584016;28;20043;-73
2022/09/09 17:42:22;;;;;;;6.85;2.50;;;;;;;11.01;64.15;102072.97;10618749;27;20055;-73
2022/09/09 17:47:24;;;;;;;4.05;1.98;;;;;;;11.03;63.61;102070.78;10625136;27;20051;-75
2022/09/09 17:52:27;;;;;;;3.85;2.92;;;;;;;11.04;63.82;102075.19;10618066;28;20059;-73
2022/09/09 17:57:29;;;;;;;5.95;3.35;;;;;;;11.01;64.25;102070.22;10600132;28;20513;-73
2022/09/09 18:02:31;;;;;;;5.45;3.22;;;;;;;10.99;64.28;102072.38;10620930;27;20050;-73
2022/09/09 18:07:33;;;;;;;6.13;2.70;;;;;;;10.99;64.10;102085.28;10657752;27;20043;-73
2022/09/09 18:12:35;;;;;;;8.30;3.95;;;;;;;10.96;64.32;102083.03;10660656;27;20046;-73
2022/09/09 18:17:37;;;;;;;5.10;3.47;;;;;;;10.94;64.64;102083.28;10642284;27;20047;-73
2022/09/09 18:22:40;;;;;;;8.23;4.40;;;;;;;10.94;65.16;102083.28;10660553;27;20050;-73
2022/09/09 18:27:42;;;;;;;9.20;5.07;;;;;;;10.86;65.31;102078.19;10621778;27;20043;-73
2022/09/09 18:32:45;;;;;;;8.13;4.32;;;;;;;10.84;64.78;102077.59;10659941;27;20051;-73
2022/09/09 18:37:47;;;;;;;12.68;6.30;;;;;;;10.83;65.49;102073.19;10660177;27;20047;-73
2022/09/09 18:42:49;;;;;;;9.77;4.72;;;;;;;10.81;65.08;102072.63;10659251;27;20042;-73
2022/09/09 18:47:51;;;;;;;8.75;5.30;;;;;;;10.78;65.94;102070.38;10628017;27;20406;-73
2022/09/09 18:52:54;;;;;;;10.73;5.70;;;;;;;10.76;65.23;102067.00;10619126;27;20054;-74
2022/09/09 18:57:57;;;;;;;9.55;5.18;;;;;;;10.69;66.24;102069.09;10614623;28;20046;-73
2022/09/09 19:02:59;;;;;;;9.88;5.22;;;;;;;10.68;66.28;102068.25;10618834;27;20035;-74
2022/09/09 19:08:02;;;;;;;11.20;6.13;;;;;;;10.67;65.64;102072.09;10650804;27;20061;-72
2022/09/09 19:13:04;;;;;;;13.75;6.57;;;;;;;10.63;67.06;102078.31;10639650;27;20035;-74
2022/09/09 19:18:06;;;;;;;14.77;7.13;;;;;;;10.64;67.29;102074.50;10657734;27;20039;-75
2022/09/09 19:23:09;;;;;;;13.43;6.57;;;;;;;10.57;68.26;102085.59;10621714;27;20051;-73
2022/09/09 19:28:11;;;;;;;17.80;7.43;;;;;;;10.46;68.71;102084.59;10657383;27;20409;-73
2022/09/09 19:33:14;;;;;;;20.40;10.68;;;;;;;10.37;68.55;102080.56;10657628;27;20509;-73
2022/09/09 19:38:16;;;;;;;15.25;7.68;;;;;;;10.40;68.99;102080.06;10657327;27;20059;-73
2022/09/09 19:43:19;;;;;;;13.48;6.32;;;;;;;10.40;68.69;102080.06;10638312;27;20058;-73
2022/09/09 19:48:24;;;;;;;19.15;8.98;;;;;;;10.44;68.94;102069.47;10637539;27;20447;-73
2022/09/09 19:53:27;;;;;;;15.85;7.47;;;;;;;10.38;69.85;102076.75;10631958;27;20052;-73
2022/09/09 19:58:32;;;;;;;13.77;7.13;;;;;;;10.31;69.48;102081.56;10612612;28;20055;-73
2022/09/09 20:03:35;;;;;;;15.10;7.10;;;;;;;10.27;69.87;102080.38;10595634;28;20039;-73
2022/09/09 20:08:37;;;;;;;17.50;7.57;;;;;;;10.19;70.11;102081.56;10651875;27;20043;-73
2022/09/09 20:13:40;;;;;;;17.98;8.02;;;;;;;10.15;70.05;102083.13;10655614;27;20043;-74
2022/09/09 20:18:44;;;;;;;11.57;6.50;;;;;;;10.11;70.24;102081.13;10620706;27;20039;-75
2022/09/09 20:23:48;;;;;;;12.27;7.45;;;;;;;10.06;69.90;102084.56;10655826;27;20039;-74
2022/09/09 20:28:52;;;;;;;20.23;9.60;;;;;;;10.02;70.00;102083.38;10648541;27;20420;-74
2022/09/09 20:33:56;;;;;;;21.08;8.43;;;;;;;9.96;71.22;102082.47;10619970;27;20035;-74
2022/09/09 20:39:09;;;;;;;16.17;7.55;;;;;;;9.89;71.27;102089.13;10654542;27;20055;-74
2022/09/09 20:44:16;;;;;;;16.92;7.97;;;;;;;9.82;71.14;102083.78;10661340;27;20042;-74
2022/09/09 20:49:20;;;;;;;14.20;7.37;;;;;;;9.84;71.95;102089.88;10662817;27;20047;-74
2022/09/09 20:54:25;;;;;;;16.40;5.93;;;;;;;9.88;71.50;102087.47;10654549;27;20046;-74
2022/09/09 20:59:31;;;;;;;13.93;7.47;;;;;;;9.86;72.11;102084.97;10620284;27;20530;-74
2022/09/09 21:04:34;;;;;;;23.77;8.68;;;;;;;9.81;72.12;102095.00;10654328;27;20035;-75
2022/09/09 21:09:37;;;;;;;26.98;9.95;;;;;;;9.77;72.35;102102.88;10654474;28;20050;-75
2022/09/09 21:14:39;;;;;;;20.45;9.10;;;;;;;9.72;72.07;102100.03;10603184;28;20070;-74
2022/09/09 21:19:44;;;;;;;17.55;7.70;;;;;;;9.70;71.67;102099.41;10592869;27;20052;-75
2022/09/09 21:24:46;;;;;;;17.30;6.93;;;;;;;9.64;72.28;102103.13;10652045;27;20047;-75
2022/09/09 21:29:49;;;;;;;17.95;8.63;;;;;;;9.65;71.90;102096.56;10615762;27;20047;-75
2022/09/09 21:34:51;;;;;;;13.77;6.85;;;;;;;9.58;71.57;102098.59;10663654;27;20059;-73
2022/09/09 21:39:53;;;;;;;16.73;7.75;;;;;;;9.60;72.02;102099.19;10637102;27;20046;-74
2022/09/09 21:44:56;;;;;;;21.75;7.72;;;;;;;9.53;72.11;102093.81;10645111;28;20035;-73
2022/09/09 21:50:06;;;;;;;20.45;7.97;;;;;;;9.54;72.61;102098.22;10648554;28;20058;-72
2022/09/09 21:55:09;;;;;;;15.38;7.32;;;;;;;9.52;72.52;102085.84;10653840;27;20043;-73
2022/09/09 22:00:48;;;;;;;16.67;8.47;;;;;;;9.52;72.62;102100.38;10653769;27;20512;-73
2022/09/09 22:05:51;;;;;;;19.20;10.85;;;;;;;9.44;72.15;102103.47;10654073;27;20046;-73
2022/09/09 22:10:53;;;;;;;18.23;7.60;;;;;;;9.37;71.81;102102.75;10641129;27;20050;-73
2022/09/09 22:15:56;;;;;;;14.60;7.00;;;;;;;9.32;71.88;102099.91;10628944;27;20043;-73
2022/09/09 22:21:07;;;;;;;14.77;7.65;;;;;;;9.32;72.48;102099.91;10645466;27;20039;-73
2022/09/09 22:26:09;;;;;;;13.15;6.78;;;;;;;9.29;72.57;102101.19;10637961;27;20460;-74
2022/09/09 22:31:12;;;;;;;12.02;5.82;;;;;;;9.28;71.98;102105.00;10655896;27;20066;-73
2022/09/09 22:36:14;;;;;;;13.80;5.03;;;;;;;9.27;71.57;102106.09;10656721;27;20528;-73
2022/09/09 22:41:17;;;;;;;13.02;4.95;;;;;;;9.22;71.43;102105.13;10657754;27;20031;-74
2022/09/09 22:46:19;;;;;;;15.80;5.90;;;;;;;9.16;70.82;102109.63;10648279;27;20031;-73
2022/09/09 22:51:21;;;;;;;8.45;4.75;;;;;;;9.14;71.18;102108.22;10657650;27;20046;-73
2022/09/09 22:56:24;;;;;;;13.88;5.00;;;;;;;9.09;70.24;102108.91;10657900;27;20054;-73
2022/09/09 23:01:26;;;;;;;9.77;5.88;;;;;;;9.05;69.96;102105.00;10656628;27;20047;-73
2022/09/09 23:06:29;;;;;;;8.27;4.13;;;;;;;9.03;70.15;102097.03;10638901;27;20044;-73
2022/09/09 23:11:34;;;;;;;9.10;3.90;;;;;;;9.06;69.84;102107.50;10638151;27;20074;-73
2022/09/09 23:16:39;;;;;;;11.70;4.90;;;;;;;9.00;69.77;102102.09;10611360;27;20156;-73
2022/09/09 23:21:44;;;;;;;9.77;5.35;;;;;;;8.98;69.84;102101.50;10654287;27;20050;-73
2022/09/09 23:26:47;;;;;;;8.98;4.72;;;;;;;8.94;69.10;102097.56;10655209;27;20047;-73
2022/09/09 23:31:49;;;;;;;8.25;4.93;;;;;;;8.87;69.65;102103.16;10652399;27;20047;-74
2022/09/09 23:36:52;;;;;;;8.77;4.80;;;;;;;8.82;69.41;102102.19;10637449;27;20042;-73